sensor_id;sensor_type;location;lat;lon;timestamp;pressure;altitude;pressure_sealevel;temperature;humidity
19594;BME280;9944;48.240;16.478;2022-09-01T00:01:36;99961.56;;;19.69;62.75
19594;BME280;9944;48.240;16.478;2022-09-01T00:05:41;99955.28;;;19.70;62.91
19594;BME280;9944;48.240;16.478;2022-09-01T00:09:47;99952.66;;;19.68;63.24
19594;BME280;9944;48.240;16.478;2022-09-01T00:13:51;99950.88;;;19.69;63.22
19594;BME280;9944;48.240;16.478;2022-09-01T00:17:55;99953.63;;;19.66;63.29
19594;BME280;9944;48.240;16.478;2022-09-01T00:22:00;99954.59;;;19.63;63.42
19594;BME280;9944;48.240;16.478;2022-09-01T00:26:04;99952.16;;;19.55;63.65
19594;BME280;9944;48.240;16.478;2022-09-01T00:30:09;99951.34;;;19.53;63.54
19594;BME280;9944;48.240;16.478;2022-09-01T00:34:12;99947.94;;;19.48;63.64
19594;BME280;9944;48.240;16.478;2022-09-01T00:38:17;99950.66;;;19.47;63.64
19594;BME280;9944;48.240;16.478;2022-09-01T00:42:21;99954.25;;;19.44;63.98
19594;BME280;9944;48.240;16.478;2022-09-01T00:46:27;99947.19;;;19.43;63.82
19594;BME280;9944;48.240;16.478;2022-09-01T00:50:31;99941.84;;;19.43;63.77
19594;BME280;9944;48.240;16.478;2022-09-01T00:54:39;99939.31;;;19.38;63.80
19594;BME280;9944;48.240;16.478;2022-09-01T00:58:44;99933.16;;;19.36;63.81
19594;BME280;9944;48.240;16.478;2022-09-01T01:02:48;99936.88;;;19.31;63.91
19594;BME280;9944;48.240;16.478;2022-09-01T01:06:58;99935.13;;;19.30;63.81
19594;BME280;9944;48.240;16.478;2022-09-01T01:11:08;99932.69;;;19.22;63.61
19594;BME280;9944;48.240;16.478;2022-09-01T01:15:12;99939.03;;;19.18;63.70
19594;BME280;9944;48.240;16.478;2022-09-01T01:19:20;99948.91;;;19.14;63.68
19594;BME280;9944;48.240;16.478;2022-09-01T01:23:44;99944.59;;;19.10;63.63
19594;BME280;9944;48.240;16.478;2022-09-01T01:28:03;99942.00;;;19.07;63.69
19594;BME280;9944;48.240;16.478;2022-09-01T01:32:07;99938.50;;;19.05;63.78
19594;BME280;9944;48.240;16.478;2022-09-01T01:36:16;99931.31;;;19.07;63.83
19594;BME280;9944;48.240;16.478;2022-09-01T01:40:23;99941.16;;;19.05;63.79
19594;BME280;9944;48.240;16.478;2022-09-01T01:44:28;99937.69;;;19.03;63.86
19594;BME280;9944;48.240;16.478;2022-09-01T01:48:35;99937.72;;;19.02;63.96
19594;BME280;9944;48.240;16.478;2022-09-01T01:52:40;99936.91;;;18.99;63.99
19594;BME280;9944;48.240;16.478;2022-09-01T01:56:47;99930.66;;;18.99;64.13
19594;BME280;9944;48.240;16.478;2022-09-01T02:00:53;99931.53;;;19.01;63.94
19594;BME280;9944;48.240;16.478;2022-09-01T02:04:57;99920.09;;;18.96;64.03
19594;BME280;9944;48.240;16.478;2022-09-01T02:09:01;99913.88;;;18.95;63.92
19594;BME280;9944;48.240;16.478;2022-09-01T02:13:05;99912.19;;;18.93;64.06
19594;BME280;9944;48.240;16.478;2022-09-01T02:17:10;99903.34;;;18.91;63.89
19594;BME280;9944;48.240;16.478;2022-09-01T02:21:15;99904.38;;;18.85;64.26
19594;BME280;9944;48.240;16.478;2022-09-01T02:25:20;99906.19;;;18.85;64.36
19594;BME280;9944;48.240;16.478;2022-09-01T02:29:24;99906.19;;;18.85;64.27
19594;BME280;9944;48.240;16.478;2022-09-01T02:33:31;99917.66;;;18.87;64.05
19594;BME280;9944;48.240;16.478;2022-09-01T02:37:37;99916.03;;;18.83;64.10
19594;BME280;9944;48.240;16.478;2022-09-01T02:41:43;99914.22;;;18.81;63.97
19594;BME280;9944;48.240;16.478;2022-09-01T02:45:47;99912.50;;;18.80;64.00
19594;BME280;9944;48.240;16.478;2022-09-01T02:49:57;99913.41;;;18.79;63.93
19594;BME280;9944;48.240;16.478;2022-09-01T02:54:02;99918.72;;;18.79;63.86
19594;BME280;9944;48.240;16.478;2022-09-01T02:58:08;99916.94;;;18.80;63.89
19594;BME280;9944;48.240;16.478;2022-09-01T03:02:17;99915.16;;;18.80;63.93
19594;BME280;9944;48.240;16.478;2022-09-01T03:06:22;99918.69;;;18.83;63.71
19594;BME280;9944;48.240;16.478;2022-09-01T03:10:27;99924.03;;;18.83;63.83
19594;BME280;9944;48.240;16.478;2022-09-01T03:14:33;99927.56;;;18.81;63.89
19594;BME280;9944;48.240;16.478;2022-09-01T03:18:37;99919.59;;;18.80;63.88
19594;BME280;9944;48.240;16.478;2022-09-01T03:22:42;99917.00;;;18.78;63.86
19594;BME280;9944;48.240;16.478;2022-09-01T03:26:46;99910.69;;;18.81;63.87
19594;BME280;9944;48.240;16.478;2022-09-01T03:30:54;99916.88;;;18.81;63.88
19594;BME280;9944;48.240;16.478;2022-09-01T03:34:57;99914.25;;;18.80;64.08
19594;BME280;9944;48.240;16.478;2022-09-01T03:39:02;99909.00;;;18.78;63.99
19594;BME280;9944;48.240;16.478;2022-09-01T03:43:07;99903.72;;;18.77;64.29
19594;BME280;9944;48.240;16.478;2022-09-01T03:47:11;99915.31;;;18.74;64.13
19594;BME280;9944;48.240;16.478;2022-09-01T03:51:17;99908.25;;;18.73;64.37
19594;BME280;9944;48.240;16.478;2022-09-01T03:55:26;99899.41;;;18.71;64.32
19594;BME280;9944;48.240;16.478;2022-09-01T03:59:31;99905.66;;;18.70;64.57
19594;BME280;9944;48.240;16.478;2022-09-01T04:03:37;99903.09;;;18.66;64.58
19594;BME280;9944;48.240;16.478;2022-09-01T04:07:41;99905.78;;;18.66;64.64
19594;BME280;9944;48.240;16.478;2022-09-01T04:11:50;99911.09;;;18.66;64.78
19594;BME280;9944;48.240;16.478;2022-09-01T04:15:55;99911.97;;;18.66;64.70
19594;BME280;9944;48.240;16.478;2022-09-01T04:20:01;99914.75;;;18.63;64.75
19594;BME280;9944;48.240;16.478;2022-09-01T04:24:10;99907.72;;;18.59;64.71
19594;BME280;9944;48.240;16.478;2022-09-01T04:28:19;99907.72;;;18.59;64.57
19594;BME280;9944;48.240;16.478;2022-09-01T04:32:26;99913.16;;;18.56;64.56
19594;BME280;9944;48.240;16.478;2022-09-01T04:36:32;99907.88;;;18.54;64.63
19594;BME280;9944;48.240;16.478;2022-09-01T04:40:37;99909.72;;;18.52;64.40
19594;BME280;9944;48.240;16.478;2022-09-01T04:44:42;99910.63;;;18.51;64.49
19594;BME280;9944;48.240;16.478;2022-09-01T04:48:46;99911.50;;;18.50;64.48
19594;BME280;9944;48.240;16.478;2022-09-01T04:52:50;99906.19;;;18.50;64.58
19594;BME280;9944;48.240;16.478;2022-09-01T04:57:03;99912.41;;;18.51;64.60
19594;BME280;9944;48.240;16.478;2022-09-01T05:01:17;99914.22;;;18.49;64.62
19594;BME280;9944;48.240;16.478;2022-09-01T05:05:21;99921.38;;;18.47;64.59
19594;BME280;9944;48.240;16.478;2022-09-01T05:09:26;99916.94;;;18.47;64.35
19594;BME280;9944;48.240;16.478;2022-09-01T05:13:36;99919.53;;;18.49;64.28
19594;BME280;9944;48.240;16.478;2022-09-01T05:17:42;99920.50;;;18.46;63.95
19594;BME280;9944;48.240;16.478;2022-09-01T05:21:46;99915.19;;;18.46;64.05
19594;BME280;9944;48.240;16.478;2022-09-01T05:25:51;99920.50;;;18.46;64.13
19594;BME280;9944;48.240;16.478;2022-09-01T05:29:55;99923.06;;;18.51;64.12
19594;BME280;9944;48.240;16.478;2022-09-01T05:34:04;99913.28;;;18.51;64.12
19594;BME280;9944;48.240;16.478;2022-09-01T05:38:10;99910.56;;;18.53;63.42
19594;BME280;9944;48.240;16.478;2022-09-01T05:42:16;99912.41;;;18.51;63.30
19594;BME280;9944;48.240;16.478;2022-09-01T05:46:22;99913.31;;;18.50;63.29
19594;BME280;9944;48.240;16.478;2022-09-01T05:50:28;99917.63;;;18.54;62.83
19594;BME280;9944;48.240;16.478;2022-09-01T05:54:32;99915.94;;;18.51;62.54
19594;BME280;9944;48.240;16.478;2022-09-01T05:58:37;99921.22;;;18.53;62.70
19594;BME280;9944;48.240;16.478;2022-09-01T06:03:01;99922.03;;;18.56;62.34
19594;BME280;9944;48.240;16.478;2022-09-01T06:07:10;99920.97;;;18.62;62.13
19594;BME280;9944;48.240;16.478;2022-09-01T06:11:26;99927.97;;;18.66;62.38
19594;BME280;9944;48.240;16.478;2022-09-01T06:15:35;99935.78;;;18.74;61.71
19594;BME280;9944;48.240;16.478;2022-09-01T06:19:39;99935.56;;;18.83;61.33
19594;BME280;9944;48.240;16.478;2022-09-01T06:23:45;99933.56;;;18.91;60.81
19594;BME280;9944;48.240;16.478;2022-09-01T06:27:51;99938.59;;;19.02;61.06
19594;BME280;9944;48.240;16.478;2022-09-01T06:31:54;99944.59;;;19.10;60.64
19594;BME280;9944;48.240;16.478;2022-09-01T06:36:01;99945.28;;;19.17;60.65
19594;BME280;9944;48.240;16.478;2022-09-01T06:40:08;99942.31;;;19.28;60.69
19594;BME280;9944;48.240;16.478;2022-09-01T06:44:18;99947.38;;;19.37;60.22
19594;BME280;9944;48.240;16.478;2022-09-01T06:48:33;99940.09;;;19.42;59.96
19594;BME280;9944;48.240;16.478;2022-09-01T06:52:41;99936.31;;;19.49;59.88
19594;BME280;9944;48.240;16.478;2022-09-01T06:57:06;99939.56;;;19.61;60.00
19594;BME280;9944;48.240;16.478;2022-09-01T07:01:29;99933.06;;;19.69;58.92
19594;BME280;9944;48.240;16.478;2022-09-01T07:05:34;99935.50;;;19.77;58.83
19594;BME280;9944;48.240;16.478;2022-09-01T07:10:20;99936.06;;;19.88;58.38
19594;BME280;9944;48.240;16.478;2022-09-01T07:14:37;99940.97;;;20.02;57.92
19594;BME280;9944;48.240;16.478;2022-09-01T07:19:01;99938.59;;;20.20;57.20
19594;BME280;9944;48.240;16.478;2022-09-01T07:23:09;99938.88;;;20.39;57.68
19594;BME280;9944;48.240;16.478;2022-09-01T07:27:13;99945.22;;;20.61;56.64
19594;BME280;9944;48.240;16.478;2022-09-01T07:31:23;99948.19;;;20.80;55.60
19594;BME280;9944;48.240;16.478;2022-09-01T07:35:48;99944.84;;;20.99;54.68
19594;BME280;9944;48.240;16.478;2022-09-01T07:40:15;99933.66;;;21.13;53.39
19594;BME280;9944;48.240;16.478;2022-09-01T07:44:40;99941.31;;;21.22;53.22
19594;BME280;9944;48.240;16.478;2022-09-01T07:49:04;99940.50;;;21.43;53.12
19594;BME280;9944;48.240;16.478;2022-09-01T07:53:31;99938.22;;;21.58;52.03
19594;BME280;9944;48.240;16.478;2022-09-01T07:57:35;99940.53;;;21.67;50.97
19594;BME280;9944;48.240;16.478;2022-09-01T08:01:39;99948.31;;;21.73;50.71
19594;BME280;9944;48.240;16.478;2022-09-01T08:05:45;99944.34;;;21.84;48.91
19594;BME280;9944;48.240;16.478;2022-09-01T08:09:51;99942.22;;;21.92;49.62
19594;BME280;9944;48.240;16.478;2022-09-01T08:14:02;99950.56;;;22.06;49.11
19594;BME280;9944;48.240;16.478;2022-09-01T08:18:07;99948.47;;;22.14;48.41
19594;BME280;9944;48.240;16.478;2022-09-01T08:22:12;99957.06;;;22.23;47.88
19594;BME280;9944;48.240;16.478;2022-09-01T08:26:26;99952.38;;;22.29;47.64
19594;BME280;9944;48.240;16.478;2022-09-01T08:30:30;99955.16;;;22.48;47.58
19594;BME280;9944;48.240;16.478;2022-09-01T08:34:34;99966.41;;;22.56;46.89
19594;BME280;9944;48.240;16.478;2022-09-01T08:38:40;99962.56;;;22.64;46.38
19594;BME280;9944;48.240;16.478;2022-09-01T08:42:52;99951.28;;;22.76;46.54
19594;BME280;9944;48.240;16.478;2022-09-01T08:47:00;99947.38;;;22.83;45.35
19594;BME280;9944;48.240;16.478;2022-09-01T08:51:14;99954.34;;;22.87;44.70
19594;BME280;9944;48.240;16.478;2022-09-01T08:55:39;99954.22;;;22.90;44.68
19594;BME280;9944;48.240;16.478;2022-09-01T08:59:44;99950.31;;;22.98;44.85
19594;BME280;9944;48.240;16.478;2022-09-01T09:04:09;99942.84;;;23.06;44.30
19594;BME280;9944;48.240;16.478;2022-09-01T09:08:35;99936.78;;;23.21;43.61
19594;BME280;9944;48.240;16.478;2022-09-01T09:12:50;99939.84;;;23.33;43.99
19594;BME280;9944;48.240;16.478;2022-09-01T09:16:57;99925.75;;;23.46;43.35
19594;BME280;9944;48.240;16.478;2022-09-01T09:21:07;99931.50;;;23.58;42.61
19594;BME280;9944;48.240;16.478;2022-09-01T09:25:15;99923.00;;;23.67;42.66
19594;BME280;9944;48.240;16.478;2022-09-01T09:29:22;99932.44;;;23.76;42.46
19594;BME280;9944;48.240;16.478;2022-09-01T09:33:36;99929.19;;;23.88;43.02
19594;BME280;9944;48.240;16.478;2022-09-01T09:37:53;99922.94;;;24.06;41.73
19594;BME280;9944;48.240;16.478;2022-09-01T09:42:04;99925.75;;;24.03;41.83
19594;BME280;9944;48.240;16.478;2022-09-01T09:46:23;99930.84;;;24.10;41.54
19594;BME280;9944;48.240;16.478;2022-09-01T09:50:29;99912.81;;;24.12;41.80
19594;BME280;9944;48.240;16.478;2022-09-01T09:54:33;99917.16;;;24.14;41.30
19594;BME280;9944;48.240;16.478;2022-09-01T09:58:39;99917.72;;;24.21;40.50
19594;BME280;9944;48.240;16.478;2022-09-01T10:02:45;99920.34;;;24.22;40.51
19594;BME280;9944;48.240;16.478;2022-09-01T10:06:53;99919.16;;;24.28;40.69
19594;BME280;9944;48.240;16.478;2022-09-01T10:10:57;99916.38;;;24.30;40.69
19594;BME280;9944;48.240;16.478;2022-09-01T10:15:03;99919.22;;;24.44;39.72
19594;BME280;9944;48.240;16.478;2022-09-01T10:19:14;99923.47;;;24.50;39.95
19594;BME280;9944;48.240;16.478;2022-09-01T10:23:18;99922.38;;;24.54;40.65
19594;BME280;9944;48.240;16.478;2022-09-01T10:27:24;99925.78;;;24.57;39.63
19594;BME280;9944;48.240;16.478;2022-09-01T10:31:33;99919.13;;;24.65;39.26
19594;BME280;9944;48.240;16.478;2022-09-01T10:35:42;99915.41;;;24.67;39.24
19594;BME280;9944;48.240;16.478;2022-09-01T10:40:08;99921.81;;;24.65;39.23
19594;BME280;9944;48.240;16.478;2022-09-01T10:44:17;99903.69;;;24.68;39.05
19594;BME280;9944;48.240;16.478;2022-09-01T10:48:25;99911.59;;;24.71;38.89
19594;BME280;9944;48.240;16.478;2022-09-01T10:53:01;99896.22;;;24.73;39.53
19594;BME280;9944;48.240;16.478;2022-09-01T10:57:08;99900.19;;;24.84;39.41
19594;BME280;9944;48.240;16.478;2022-09-01T11:01:13;99896.56;;;24.85;39.54
19594;BME280;9944;48.240;16.478;2022-09-01T11:05:57;99893.69;;;24.70;39.03
19594;BME280;9944;48.240;16.478;2022-09-01T11:10:29;99888.09;;;24.57;39.21
19594;BME280;9944;48.240;16.478;2022-09-01T11:14:47;99897.34;;;24.52;39.56
19594;BME280;9944;48.240;16.478;2022-09-01T11:18:51;99900.06;;;24.69;40.05
19594;BME280;9944;48.240;16.478;2022-09-01T11:23:00;99884.72;;;24.87;39.59
19594;BME280;9944;48.240;16.478;2022-09-01T11:27:07;99895.50;;;24.87;39.61
19594;BME280;9944;48.240;16.478;2022-09-01T11:31:22;99890.00;;;24.73;39.25
19594;BME280;9944;48.240;16.478;2022-09-01T11:35:28;99900.84;;;24.71;39.27
19594;BME280;9944;48.240;16.478;2022-09-01T11:39:36;99890.53;;;24.79;39.45
19594;BME280;9944;48.240;16.478;2022-09-01T11:43:42;99883.28;;;24.64;39.29
19594;BME280;9944;48.240;16.478;2022-09-01T11:47:46;99899.25;;;24.67;39.85
19594;BME280;9944;48.240;16.478;2022-09-01T11:51:51;99892.19;;;24.82;39.73
19594;BME280;9944;48.240;16.478;2022-09-01T11:56:14;99889.44;;;24.99;38.08
19594;BME280;9944;48.240;16.478;2022-09-01T12:00:26;99888.09;;;25.08;38.00
19594;BME280;9944;48.240;16.478;2022-09-01T12:04:32;99875.09;;;25.16;38.91
19594;BME280;9944;48.240;16.478;2022-09-01T12:08:38;99885.13;;;24.97;38.80
19594;BME280;9944;48.240;16.478;2022-09-01T12:12:42;99880.06;;;24.91;39.02
19594;BME280;9944;48.240;16.478;2022-09-01T12:16:55;99876.06;;;24.98;39.26
19594;BME280;9944;48.240;16.478;2022-09-01T12:21:01;99868.28;;;25.09;39.14
19594;BME280;9944;48.240;16.478;2022-09-01T12:25:31;99878.38;;;25.22;38.14
19594;BME280;9944;48.240;16.478;2022-09-01T12:29:36;99882.75;;;25.24;38.30
19594;BME280;9944;48.240;16.478;2022-09-01T12:33:43;99877.22;;;25.27;37.55
19594;BME280;9944;48.240;16.478;2022-09-01T12:37:46;99876.97;;;25.32;38.39
19594;BME280;9944;48.240;16.478;2022-09-01T12:42:03;99887.25;;;25.24;37.86
19594;BME280;9944;48.240;16.478;2022-09-01T12:46:11;99882.88;;;25.05;38.75
19594;BME280;9944;48.240;16.478;2022-09-01T12:50:40;99883.72;;;24.90;38.27
19594;BME280;9944;48.240;16.478;2022-09-01T12:54:45;99874.66;;;24.91;38.35
19594;BME280;9944;48.240;16.478;2022-09-01T12:58:50;99879.22;;;25.06;38.20
19594;BME280;9944;48.240;16.478;2022-09-01T13:03:07;99871.44;;;25.17;38.06
19594;BME280;9944;48.240;16.478;2022-09-01T13:07:16;99878.22;;;25.25;37.89
19594;BME280;9944;48.240;16.478;2022-09-01T13:11:20;99874.44;;;25.29;37.34
19594;BME280;9944;48.240;16.478;2022-09-01T13:15:24;99884.28;;;25.30;37.74
19594;BME280;9944;48.240;16.478;2022-09-01T13:19:27;99877.63;;;25.19;38.14
19594;BME280;9944;48.240;16.478;2022-09-01T13:23:32;99868.41;;;25.24;38.43
19594;BME280;9944;48.240;16.478;2022-09-01T13:27:36;99864.75;;;25.25;37.77
19594;BME280;9944;48.240;16.478;2022-09-01T13:31:39;99873.22;;;25.34;37.17
19594;BME280;9944;48.240;16.478;2022-09-01T13:36:06;99879.50;;;25.35;37.85
19594;BME280;9944;48.240;16.478;2022-09-01T13:40:30;99878.75;;;25.15;36.99
19594;BME280;9944;48.240;16.478;2022-09-01T13:44:34;99882.50;;;24.95;37.47
19594;BME280;9944;48.240;16.478;2022-09-01T13:48:37;99872.88;;;24.91;37.84
19594;BME280;9944;48.240;16.478;2022-09-01T13:53:01;99879.03;;;24.93;37.09
19594;BME280;9944;48.240;16.478;2022-09-01T13:57:06;99870.88;;;24.95;37.02
19594;BME280;9944;48.240;16.478;2022-09-01T14:01:09;99866.91;;;25.02;36.84
19594;BME280;9944;48.240;16.478;2022-09-01T14:05:15;99877.16;;;25.11;37.94
19594;BME280;9944;48.240;16.478;2022-09-01T14:09:18;99876.91;;;25.16;37.97
19594;BME280;9944;48.240;16.478;2022-09-01T14:13:23;99857.19;;;25.15;37.17
19594;BME280;9944;48.240;16.478;2022-09-01T14:17:27;99880.19;;;25.05;37.53
19594;BME280;9944;48.240;16.478;2022-09-01T14:21:30;99869.28;;;24.91;37.01
19594;BME280;9944;48.240;16.478;2022-09-01T14:25:34;99871.34;;;24.86;37.43
19594;BME280;9944;48.240;16.478;2022-09-01T14:29:39;99874.06;;;24.68;36.23
19594;BME280;9944;48.240;16.478;2022-09-01T14:33:42;99864.25;;;24.50;36.98
19594;BME280;9944;48.240;16.478;2022-09-01T14:37:46;99871.84;;;24.41;37.51
19594;BME280;9944;48.240;16.478;2022-09-01T14:41:49;99874.53;;;24.41;38.05
19594;BME280;9944;48.240;16.478;2022-09-01T14:46:03;99870.09;;;24.40;36.78
19594;BME280;9944;48.240;16.478;2022-09-01T14:50:08;99859.97;;;24.28;36.90
19594;BME280;9944;48.240;16.478;2022-09-01T14:54:11;99871.06;;;24.22;36.00
19594;BME280;9944;48.240;16.478;2022-09-01T14:58:14;99860.47;;;24.19;36.64
19594;BME280;9944;48.240;16.478;2022-09-01T15:02:19;99862.28;;;24.18;36.72
19594;BME280;9944;48.240;16.478;2022-09-01T15:06:22;99867.97;;;24.12;36.53
19594;BME280;9944;48.240;16.478;2022-09-01T15:10:27;99868.91;;;24.11;37.00
19594;BME280;9944;48.240;16.478;2022-09-01T15:14:30;99875.31;;;24.09;36.30
19594;BME280;9944;48.240;16.478;2022-09-01T15:18:35;99863.00;;;24.04;36.51
19594;BME280;9944;48.240;16.478;2022-09-01T15:22:38;99866.75;;;24.00;36.11
19594;BME280;9944;48.240;16.478;2022-09-01T15:26:42;99872.22;;;23.99;36.65
19594;BME280;9944;48.240;16.478;2022-09-01T15:30:47;99868.94;;;23.92;36.68
19594;BME280;9944;48.240;16.478;2022-09-01T15:34:56;99873.59;;;23.88;37.08
19594;BME280;9944;48.240;16.478;2022-09-01T15:38:59;99877.56;;;23.81;36.72
19594;BME280;9944;48.240;16.478;2022-09-01T15:43:04;99877.69;;;23.78;36.39
19594;BME280;9944;48.240;16.478;2022-09-01T15:47:07;99885.66;;;23.80;36.98
19594;BME280;9944;48.240;16.478;2022-09-01T15:51:31;99892.06;;;23.77;37.47
19594;BME280;9944;48.240;16.478;2022-09-01T15:55:41;99887.94;;;23.70;37.47
19594;BME280;9944;48.240;16.478;2022-09-01T15:59:44;99879.16;;;23.66;37.17
19594;BME280;9944;48.240;16.478;2022-09-01T16:03:47;99888.47;;;23.59;37.08
19594;BME280;9944;48.240;16.478;2022-09-01T16:07:52;99891.56;;;23.50;37.06
19594;BME280;9944;48.240;16.478;2022-09-01T16:12:01;99888.59;;;23.37;37.20
19594;BME280;9944;48.240;16.478;2022-09-01T16:16:12;99887.16;;;23.30;37.00
19594;BME280;9944;48.240;16.478;2022-09-01T16:20:24;99902.53;;;23.26;37.31
19594;BME280;9944;48.240;16.478;2022-09-01T16:24:29;99898.88;;;23.27;37.42
19594;BME280;9944;48.240;16.478;2022-09-01T16:28:35;99890.19;;;23.22;37.00
19594;BME280;9944;48.240;16.478;2022-09-01T16:32:43;99904.69;;;23.18;37.86
19594;BME280;9944;48.240;16.478;2022-09-01T16:36:51;99907.50;;;23.15;37.96
19594;BME280;9944;48.240;16.478;2022-09-01T16:41:02;99901.22;;;23.16;38.65
19594;BME280;9944;48.240;16.478;2022-09-01T16:45:14;99907.59;;;23.13;38.22
19594;BME280;9944;48.240;16.478;2022-09-01T16:49:29;99912.50;;;23.04;37.97
19594;BME280;9944;48.240;16.478;2022-09-01T16:53:48;99910.19;;;22.94;38.49
19594;BME280;9944;48.240;16.478;2022-09-01T16:57:59;99924.84;;;22.87;38.28
19594;BME280;9944;48.240;16.478;2022-09-01T17:02:17;99917.06;;;22.81;38.05
19594;BME280;9944;48.240;16.478;2022-09-01T17:06:27;99915.56;;;22.74;38.38
19594;BME280;9944;48.240;16.478;2022-09-01T17:10:38;99917.75;;;22.66;38.51
19594;BME280;9944;48.240;16.478;2022-09-01T17:14:49;99917.94;;;22.61;39.30
19594;BME280;9944;48.240;16.478;2022-09-01T17:18:57;99929.75;;;22.57;38.90
19594;BME280;9944;48.240;16.478;2022-09-01T17:23:01;99923.75;;;22.50;39.89
19594;BME280;9944;48.240;16.478;2022-09-01T17:27:13;99928.63;;;22.41;39.37
19594;BME280;9944;48.240;16.478;2022-09-01T17:31:30;99933.25;;;22.37;39.65
19594;BME280;9944;48.240;16.478;2022-09-01T17:35:38;99937.19;;;22.28;39.98
19594;BME280;9944;48.240;16.478;2022-09-01T17:39:50;99939.22;;;22.22;40.37
19594;BME280;9944;48.240;16.478;2022-09-01T17:44:03;99951.09;;;22.16;40.35
19594;BME280;9944;48.240;16.478;2022-09-01T17:48:16;99946.97;;;22.07;40.29
19594;BME280;9944;48.240;16.478;2022-09-01T17:52:33;99959.91;;;21.96;40.40
19594;BME280;9944;48.240;16.478;2022-09-01T17:56:47;99970.03;;;21.89;40.60
19594;BME280;9944;48.240;16.478;2022-09-01T18:00:59;99978.41;;;21.80;40.52
19594;BME280;9944;48.240;16.478;2022-09-01T18:05:09;99987.56;;;21.74;40.97
19594;BME280;9944;48.240;16.478;2022-09-01T18:09:16;99995.16;;;21.63;41.39
19594;BME280;9944;48.240;16.478;2022-09-01T18:13:23;100008.88;;;21.54;41.60
19594;BME280;9944;48.240;16.478;2022-09-01T18:17:51;100018.97;;;21.45;42.17
19594;BME280;9944;48.240;16.478;2022-09-01T18:22:00;100018.34;;;21.39;42.28
19594;BME280;9944;48.240;16.478;2022-09-01T18:26:11;100023.03;;;21.32;42.55
19594;BME280;9944;48.240;16.478;2022-09-01T18:30:19;100021.50;;;21.25;42.54
19594;BME280;9944;48.240;16.478;2022-09-01T18:34:55;100032.53;;;21.16;42.81
19594;BME280;9944;48.240;16.478;2022-09-01T18:39:08;100031.88;;;21.09;43.25
19594;BME280;9944;48.240;16.478;2022-09-01T18:47:32;100033.06;;;21.00;43.62
19594;BME280;9944;48.240;16.478;2022-09-01T18:51:54;100029.81;;;20.92;43.83
19594;BME280;9944;48.240;16.478;2022-09-01T18:56:07;100039.06;;;20.82;44.04
19594;BME280;9944;48.240;16.478;2022-09-01T19:00:17;100046.50;;;20.72;44.68
19594;BME280;9944;48.240;16.478;2022-09-01T19:04:24;100052.91;;;20.68;44.78
19594;BME280;9944;48.240;16.478;2022-09-01T19:08:41;100054.63;;;20.69;45.17
19594;BME280;9944;48.240;16.478;2022-09-01T19:12:51;100052.13;;;20.64;45.50
19594;BME280;9944;48.240;16.478;2022-09-01T19:17:09;100054.06;;;20.59;45.97
19594;BME280;9944;48.240;16.478;2022-09-01T19:21:20;100059.50;;;20.56;46.22
19594;BME280;9944;48.240;16.478;2022-09-01T19:25:23;100055.31;;;20.47;46.59
19594;BME280;9944;48.240;16.478;2022-09-01T19:29:44;100067.09;;;20.42;46.53
19594;BME280;9944;48.240;16.478;2022-09-01T19:33:52;100064.50;;;20.39;46.91
19594;BME280;9944;48.240;16.478;2022-09-01T19:37:56;100066.31;;;20.38;47.14
19594;BME280;9944;48.240;16.478;2022-09-01T19:42:04;100063.00;;;20.30;47.21
19594;BME280;9944;48.240;16.478;2022-09-01T19:46:20;100064.03;;;20.26;47.46
19594;BME280;9944;48.240;16.478;2022-09-01T19:50:29;100066.84;;;20.21;47.69
19594;BME280;9944;48.240;16.478;2022-09-01T19:54:43;100063.38;;;20.18;47.90
19594;BME280;9944;48.240;16.478;2022-09-01T19:58:56;100056.38;;;20.13;48.09
19594;BME280;9944;48.240;16.478;2022-09-01T20:03:06;100060.16;;;20.06;48.35
19594;BME280;9944;48.240;16.478;2022-09-01T20:07:21;100055.06;;;19.99;48.42
19594;BME280;9944;48.240;16.478;2022-09-01T20:11:39;100054.41;;;19.90;48.53
19594;BME280;9944;48.240;16.478;2022-09-01T20:15:50;100061.69;;;19.85;48.72
19594;BME280;9944;48.240;16.478;2022-09-01T20:20:03;100070.78;;;19.78;48.79
19594;BME280;9944;48.240;16.478;2022-09-01T20:24:15;100070.00;;;19.73;49.08
19594;BME280;9944;48.240;16.478;2022-09-01T20:28:25;100078.09;;;19.70;49.36
19594;BME280;9944;48.240;16.478;2022-09-01T20:32:35;100072.13;;;19.62;49.38
19594;BME280;9944;48.240;16.478;2022-09-01T20:36:47;100076.72;;;19.56;49.38
19594;BME280;9944;48.240;16.478;2022-09-01T20:40:53;100077.75;;;19.51;49.57
19594;BME280;9944;48.240;16.478;2022-09-01T20:45:02;100068.97;;;19.47;49.71
19594;BME280;9944;48.240;16.478;2022-09-01T20:49:07;100077.16;;;19.41;49.93
19594;BME280;9944;48.240;16.478;2022-09-01T20:53:22;100079.16;;;19.33;49.68
19594;BME280;9944;48.240;16.478;2022-09-01T20:57:36;100083.66;;;19.31;49.92
19594;BME280;9944;48.240;16.478;2022-09-01T21:01:47;100079.28;;;19.27;50.15
19594;BME280;9944;48.240;16.478;2022-09-01T21:05:56;100085.72;;;19.19;50.16
19594;BME280;9944;48.240;16.478;2022-09-01T21:10:05;100083.31;;;19.10;49.97
19594;BME280;9944;48.240;16.478;2022-09-01T21:14:36;100079.13;;;19.00;50.17
19594;BME280;9944;48.240;16.478;2022-09-01T21:18:46;100081.03;;;18.95;50.27
19594;BME280;9944;48.240;16.478;2022-09-01T21:22:54;100086.44;;;18.92;50.37
19594;BME280;9944;48.240;16.478;2022-09-01T21:27:02;100078.59;;;18.86;50.62
19594;BME280;9944;48.240;16.478;2022-09-01T21:31:08;100089.38;;;18.79;50.59
19594;BME280;9944;48.240;16.478;2022-09-01T21:35:14;100082.44;;;18.72;50.92
19594;BME280;9944;48.240;16.478;2022-09-01T21:39:17;100078.94;;;18.70;50.92
19594;BME280;9944;48.240;16.478;2022-09-01T21:43:25;100076.31;;;18.69;51.18
19594;BME280;9944;48.240;16.478;2022-09-01T21:47:30;100072.84;;;18.65;51.17
19594;BME280;9944;48.240;16.478;2022-09-01T21:51:34;100079.22;;;18.59;51.01
19594;BME280;9944;48.240;16.478;2022-09-01T21:55:38;100081.97;;;18.55;51.18
19594;BME280;9944;48.240;16.478;2022-09-01T21:59:43;100072.31;;;18.51;51.28